Springdale, Washington
Current Conditions -  °F | °C
As of 10:53 PM on Wednesday 26 Nov 2014 (Local Time) from KDEW Reporting Station
Haze Haze  
Wind Chill: 36°   Ceiling: 6000
Heat Index: 36°   Visibility: 5mi
Dew Point: 36°   Wind: 0mph
Humidity: 100%   Direction: NA
Pressure: 29.97"   Gusts: NA
Location:  48.06°N, 117.74°W
Report Text: KDEW 270653Z AUTO 00000KT 5SM BR BKN060 OVC075 02/02 A2997 RMK AO2 SLP167 T00220022
Loading
Personal Weather Stations






























Interactive Weather Map New forecast layout! Learn more

10-Day Weather Forecast

Advertisements
Track Severe Weather on mobile